sensor_id;sensor_type;location;lat;lon;timestamp;P1;durP1;ratioP1;P2;durP2;ratioP2
15996;SDS011;8103;51.340;12.326;2022-11-20T00:01:12;28.07;;;14.17;;
15996;SDS011;8103;51.340;12.326;2022-11-20T00:03:40;20.53;;;13.70;;
15996;SDS011;8103;51.340;12.326;2022-11-20T00:06:09;24.43;;;13.63;;
15996;SDS011;8103;51.340;12.326;2022-11-20T00:08:38;21.37;;;13.23;;
15996;SDS011;8103;51.340;12.326;2022-11-20T00:11:09;23.17;;;14.37;;
15996;SDS011;8103;51.340;12.326;2022-11-20T00:13:41;18.90;;;12.27;;
15996;SDS011;8103;51.340;12.326;2022-11-20T00:16:09;20.03;;;11.83;;
15996;SDS011;8103;51.340;12.326;2022-11-20T00:18:38;19.10;;;12.73;;
15996;SDS011;8103;51.340;12.326;2022-11-20T00:21:07;21.27;;;13.20;;
15996;SDS011;8103;51.340;12.326;2022-11-20T00:23:36;21.87;;;13.50;;
15996;SDS011;8103;51.340;12.326;2022-11-20T00:26:04;20.27;;;12.43;;
15996;SDS011;8103;51.340;12.326;2022-11-20T00:28:32;22.43;;;13.80;;
15996;SDS011;8103;51.340;12.326;2022-11-20T00:31:00;24.63;;;13.83;;
15996;SDS011;8103;51.340;12.326;2022-11-20T00:33:28;20.63;;;14.17;;
15996;SDS011;8103;51.340;12.326;2022-11-20T00:35:59;22.53;;;14.33;;
15996;SDS011;8103;51.340;12.326;2022-11-20T00:38:31;23.03;;;13.47;;
15996;SDS011;8103;51.340;12.326;2022-11-20T00:40:59;25.13;;;15.70;;
15996;SDS011;8103;51.340;12.326;2022-11-20T00:43:28;23.23;;;14.13;;
15996;SDS011;8103;51.340;12.326;2022-11-20T00:46:38;28.07;;;16.07;;
15996;SDS011;8103;51.340;12.326;2022-11-20T00:48:47;22.20;;;14.33;;
15996;SDS011;8103;51.340;12.326;2022-11-20T00:51:19;29.20;;;16.50;;
15996;SDS011;8103;51.340;12.326;2022-11-20T00:53:49;23.87;;;14.53;;
15996;SDS011;8103;51.340;12.326;2022-11-20T00:56:17;27.27;;;15.33;;
15996;SDS011;8103;51.340;12.326;2022-11-20T00:58:46;27.17;;;15.27;;
15996;SDS011;8103;51.340;12.326;2022-11-20T01:01:19;28.93;;;15.23;;
15996;SDS011;8103;51.340;12.326;2022-11-20T01:03:48;24.97;;;14.93;;
15996;SDS011;8103;51.340;12.326;2022-11-20T01:06:20;30.97;;;15.70;;
15996;SDS011;8103;51.340;12.326;2022-11-20T01:08:50;33.30;;;16.73;;
15996;SDS011;8103;51.340;12.326;2022-11-20T01:11:22;26.23;;;15.37;;
15996;SDS011;8103;51.340;12.326;2022-11-20T01:13:51;25.83;;;15.83;;
15996;SDS011;8103;51.340;12.326;2022-11-20T01:16:23;29.33;;;16.33;;
15996;SDS011;8103;51.340;12.326;2022-11-20T01:18:56;31.07;;;16.70;;
15996;SDS011;8103;51.340;12.326;2022-11-20T01:21:30;23.13;;;14.27;;
15996;SDS011;8103;51.340;12.326;2022-11-20T01:23:59;22.73;;;14.23;;
15996;SDS011;8103;51.340;12.326;2022-11-20T01:26:30;23.43;;;12.63;;
15996;SDS011;8103;51.340;12.326;2022-11-20T01:28:59;27.13;;;15.47;;
15996;SDS011;8103;51.340;12.326;2022-11-20T01:31:28;20.70;;;12.73;;
15996;SDS011;8103;51.340;12.326;2022-11-20T01:34:00;22.77;;;14.27;;
15996;SDS011;8103;51.340;12.326;2022-11-20T01:36:29;20.43;;;13.47;;
15996;SDS011;8103;51.340;12.326;2022-11-20T01:38:58;26.40;;;14.03;;
15996;SDS011;8103;51.340;12.326;2022-11-20T01:41:28;23.60;;;13.03;;
15996;SDS011;8103;51.340;12.326;2022-11-20T01:44:16;19.60;;;12.27;;
15996;SDS011;8103;51.340;12.326;2022-11-20T01:47:03;24.23;;;13.67;;
15996;SDS011;8103;51.340;12.326;2022-11-20T01:49:40;20.63;;;12.97;;
15996;SDS011;8103;51.340;12.326;2022-11-20T01:52:14;19.30;;;12.80;;
15996;SDS011;8103;51.340;12.326;2022-11-20T01:54:46;22.73;;;13.23;;
15996;SDS011;8103;51.340;12.326;2022-11-20T01:57:19;21.00;;;12.80;;
15996;SDS011;8103;51.340;12.326;2022-11-20T01:59:51;19.83;;;13.07;;
15996;SDS011;8103;51.340;12.326;2022-11-20T02:02:23;20.17;;;13.70;;
15996;SDS011;8103;51.340;12.326;2022-11-20T02:04:50;21.07;;;12.23;;
15996;SDS011;8103;51.340;12.326;2022-11-20T02:07:21;18.33;;;10.70;;
15996;SDS011;8103;51.340;12.326;2022-11-20T02:09:50;17.50;;;12.73;;
15996;SDS011;8103;51.340;12.326;2022-11-20T02:12:22;17.60;;;11.43;;
15996;SDS011;8103;51.340;12.326;2022-11-20T02:15:08;22.37;;;13.37;;
15996;SDS011;8103;51.340;12.326;2022-11-20T02:17:35;19.60;;;12.23;;
15996;SDS011;8103;51.340;12.326;2022-11-20T02:20:02;19.93;;;11.87;;
15996;SDS011;8103;51.340;12.326;2022-11-20T02:22:35;22.70;;;12.97;;
15996;SDS011;8103;51.340;12.326;2022-11-20T02:25:09;18.00;;;12.17;;
15996;SDS011;8103;51.340;12.326;2022-11-20T02:27:38;21.27;;;13.07;;
15996;SDS011;8103;51.340;12.326;2022-11-20T02:30:06;22.90;;;13.97;;
15996;SDS011;8103;51.340;12.326;2022-11-20T02:32:35;24.17;;;14.23;;
15996;SDS011;8103;51.340;12.326;2022-11-20T02:35:10;24.60;;;13.50;;
15996;SDS011;8103;51.340;12.326;2022-11-20T02:37:54;24.80;;;14.47;;
15996;SDS011;8103;51.340;12.326;2022-11-20T02:40:22;22.80;;;13.00;;
15996;SDS011;8103;51.340;12.326;2022-11-20T02:42:56;26.40;;;14.60;;
15996;SDS011;8103;51.340;12.326;2022-11-20T02:45:24;29.97;;;15.73;;
15996;SDS011;8103;51.340;12.326;2022-11-20T02:47:51;26.60;;;15.00;;
15996;SDS011;8103;51.340;12.326;2022-11-20T02:50:19;28.53;;;14.63;;
15996;SDS011;8103;51.340;12.326;2022-11-20T02:52:46;21.13;;;14.03;;
15996;SDS011;8103;51.340;12.326;2022-11-20T02:55:13;22.47;;;14.00;;
15996;SDS011;8103;51.340;12.326;2022-11-20T02:57:40;23.00;;;14.87;;
15996;SDS011;8103;51.340;12.326;2022-11-20T03:00:08;26.57;;;14.47;;
15996;SDS011;8103;51.340;12.326;2022-11-20T03:02:35;25.77;;;14.40;;
15996;SDS011;8103;51.340;12.326;2022-11-20T03:05:02;25.37;;;15.60;;
15996;SDS011;8103;51.340;12.326;2022-11-20T03:07:29;26.53;;;15.17;;
15996;SDS011;8103;51.340;12.326;2022-11-20T03:09:56;21.70;;;13.87;;
15996;SDS011;8103;51.340;12.326;2022-11-20T03:12:24;32.43;;;16.03;;
15996;SDS011;8103;51.340;12.326;2022-11-20T03:14:51;24.13;;;14.93;;
15996;SDS011;8103;51.340;12.326;2022-11-20T03:17:18;25.00;;;15.37;;
15996;SDS011;8103;51.340;12.326;2022-11-20T03:19:45;27.70;;;15.33;;
15996;SDS011;8103;51.340;12.326;2022-11-20T03:22:13;27.07;;;14.83;;
15996;SDS011;8103;51.340;12.326;2022-11-20T03:24:39;24.97;;;16.17;;
15996;SDS011;8103;51.340;12.326;2022-11-20T03:27:06;26.83;;;14.83;;
15996;SDS011;8103;51.340;12.326;2022-11-20T03:29:34;25.00;;;16.10;;
15996;SDS011;8103;51.340;12.326;2022-11-20T03:32:01;27.27;;;16.07;;
15996;SDS011;8103;51.340;12.326;2022-11-20T03:34:28;35.90;;;16.63;;
15996;SDS011;8103;51.340;12.326;2022-11-20T03:36:56;27.83;;;15.30;;
15996;SDS011;8103;51.340;12.326;2022-11-20T03:39:23;27.43;;;16.93;;
15996;SDS011;8103;51.340;12.326;2022-11-20T03:41:50;29.53;;;16.23;;
15996;SDS011;8103;51.340;12.326;2022-11-20T03:44:17;27.10;;;16.47;;
15996;SDS011;8103;51.340;12.326;2022-11-20T03:46:47;27.70;;;18.47;;
15996;SDS011;8103;51.340;12.326;2022-11-20T03:49:14;33.17;;;18.17;;
15996;SDS011;8103;51.340;12.326;2022-11-20T03:51:42;32.07;;;17.53;;
15996;SDS011;8103;51.340;12.326;2022-11-20T03:54:09;37.67;;;19.87;;
15996;SDS011;8103;51.340;12.326;2022-11-20T03:56:36;34.23;;;16.60;;
15996;SDS011;8103;51.340;12.326;2022-11-20T03:59:05;28.43;;;16.60;;
15996;SDS011;8103;51.340;12.326;2022-11-20T04:01:33;30.17;;;17.20;;
15996;SDS011;8103;51.340;12.326;2022-11-20T04:04:04;30.10;;;17.10;;
15996;SDS011;8103;51.340;12.326;2022-11-20T04:06:35;31.20;;;17.13;;
15996;SDS011;8103;51.340;12.326;2022-11-20T04:09:04;31.37;;;18.80;;
15996;SDS011;8103;51.340;12.326;2022-11-20T04:11:33;27.60;;;18.00;;
15996;SDS011;8103;51.340;12.326;2022-11-20T04:14:03;30.77;;;17.47;;
15996;SDS011;8103;51.340;12.326;2022-11-20T04:16:33;29.90;;;18.27;;
15996;SDS011;8103;51.340;12.326;2022-11-20T04:19:02;30.83;;;16.33;;
15996;SDS011;8103;51.340;12.326;2022-11-20T04:21:31;31.50;;;18.03;;
15996;SDS011;8103;51.340;12.326;2022-11-20T04:23:59;30.73;;;18.00;;
15996;SDS011;8103;51.340;12.326;2022-11-20T04:26:26;27.60;;;16.43;;
15996;SDS011;8103;51.340;12.326;2022-11-20T04:28:54;32.13;;;16.87;;
15996;SDS011;8103;51.340;12.326;2022-11-20T04:31:23;25.63;;;15.70;;
15996;SDS011;8103;51.340;12.326;2022-11-20T04:34:00;32.33;;;17.93;;
15996;SDS011;8103;51.340;12.326;2022-11-20T04:36:32;33.60;;;18.20;;
15996;SDS011;8103;51.340;12.326;2022-11-20T04:39:00;31.23;;;16.50;;
15996;SDS011;8103;51.340;12.326;2022-11-20T04:41:32;32.87;;;17.47;;
15996;SDS011;8103;51.340;12.326;2022-11-20T04:44:01;31.67;;;17.97;;
15996;SDS011;8103;51.340;12.326;2022-11-20T04:46:34;30.23;;;17.27;;
15996;SDS011;8103;51.340;12.326;2022-11-20T04:49:02;26.00;;;15.57;;
15996;SDS011;8103;51.340;12.326;2022-11-20T04:51:30;35.13;;;18.57;;
15996;SDS011;8103;51.340;12.326;2022-11-20T04:53:58;29.60;;;16.90;;
15996;SDS011;8103;51.340;12.326;2022-11-20T04:56:25;34.80;;;19.17;;
15996;SDS011;8103;51.340;12.326;2022-11-20T04:58:51;29.80;;;16.83;;
15996;SDS011;8103;51.340;12.326;2022-11-20T05:01:19;35.17;;;17.97;;
15996;SDS011;8103;51.340;12.326;2022-11-20T05:03:48;33.73;;;17.77;;
15996;SDS011;8103;51.340;12.326;2022-11-20T05:06:16;28.50;;;17.40;;
15996;SDS011;8103;51.340;12.326;2022-11-20T05:08:45;28.77;;;15.83;;
15996;SDS011;8103;51.340;12.326;2022-11-20T05:11:21;34.10;;;19.63;;
15996;SDS011;8103;51.340;12.326;2022-11-20T05:13:48;30.23;;;16.93;;
15996;SDS011;8103;51.340;12.326;2022-11-20T05:16:21;28.07;;;16.87;;
15996;SDS011;8103;51.340;12.326;2022-11-20T05:18:49;26.03;;;16.17;;
15996;SDS011;8103;51.340;12.326;2022-11-20T05:21:17;26.30;;;15.40;;
15996;SDS011;8103;51.340;12.326;2022-11-20T05:23:44;31.57;;;17.17;;
15996;SDS011;8103;51.340;12.326;2022-11-20T05:26:12;28.53;;;16.63;;
15996;SDS011;8103;51.340;12.326;2022-11-20T05:28:41;30.70;;;17.73;;
15996;SDS011;8103;51.340;12.326;2022-11-20T05:31:08;31.07;;;17.03;;
15996;SDS011;8103;51.340;12.326;2022-11-20T05:33:41;32.33;;;17.73;;
15996;SDS011;8103;51.340;12.326;2022-11-20T05:36:09;26.97;;;16.33;;
15996;SDS011;8103;51.340;12.326;2022-11-20T05:38:38;30.07;;;17.53;;
15996;SDS011;8103;51.340;12.326;2022-11-20T05:41:08;33.00;;;18.03;;
15996;SDS011;8103;51.340;12.326;2022-11-20T05:43:38;34.10;;;18.17;;
15996;SDS011;8103;51.340;12.326;2022-11-20T05:46:06;33.63;;;16.93;;
15996;SDS011;8103;51.340;12.326;2022-11-20T05:48:35;30.50;;;16.90;;
15996;SDS011;8103;51.340;12.326;2022-11-20T05:51:03;29.47;;;16.63;;
15996;SDS011;8103;51.340;12.326;2022-11-20T05:53:32;30.50;;;17.97;;
15996;SDS011;8103;51.340;12.326;2022-11-20T05:56:02;32.30;;;17.63;;
15996;SDS011;8103;51.340;12.326;2022-11-20T05:58:33;36.03;;;17.40;;
15996;SDS011;8103;51.340;12.326;2022-11-20T06:01:13;34.40;;;17.40;;
15996;SDS011;8103;51.340;12.326;2022-11-20T06:03:46;30.33;;;16.40;;
15996;SDS011;8103;51.340;12.326;2022-11-20T06:06:14;34.83;;;16.40;;
15996;SDS011;8103;51.340;12.326;2022-11-20T06:08:41;33.87;;;16.03;;
15996;SDS011;8103;51.340;12.326;2022-11-20T06:11:09;34.57;;;18.20;;
15996;SDS011;8103;51.340;12.326;2022-11-20T06:13:37;28.10;;;17.50;;
15996;SDS011;8103;51.340;12.326;2022-11-20T06:16:07;31.97;;;16.70;;
15996;SDS011;8103;51.340;12.326;2022-11-20T06:18:34;34.37;;;17.23;;
15996;SDS011;8103;51.340;12.326;2022-11-20T06:21:03;40.67;;;17.40;;
15996;SDS011;8103;51.340;12.326;2022-11-20T06:23:32;32.60;;;17.20;;
15996;SDS011;8103;51.340;12.326;2022-11-20T06:26:07;31.00;;;17.47;;
15996;SDS011;8103;51.340;12.326;2022-11-20T06:28:35;33.67;;;18.20;;
15996;SDS011;8103;51.340;12.326;2022-11-20T06:31:02;32.77;;;18.10;;
15996;SDS011;8103;51.340;12.326;2022-11-20T06:33:29;38.50;;;19.17;;
15996;SDS011;8103;51.340;12.326;2022-11-20T06:35:57;33.73;;;18.83;;
15996;SDS011;8103;51.340;12.326;2022-11-20T06:38:28;31.73;;;18.37;;
15996;SDS011;8103;51.340;12.326;2022-11-20T06:40:55;32.73;;;16.97;;
15996;SDS011;8103;51.340;12.326;2022-11-20T06:43:22;31.43;;;17.43;;
15996;SDS011;8103;51.340;12.326;2022-11-20T06:45:53;33.63;;;16.77;;
15996;SDS011;8103;51.340;12.326;2022-11-20T06:48:21;31.97;;;16.70;;
15996;SDS011;8103;51.340;12.326;2022-11-20T06:50:49;30.40;;;17.07;;
15996;SDS011;8103;51.340;12.326;2022-11-20T06:53:15;28.83;;;16.27;;
15996;SDS011;8103;51.340;12.326;2022-11-20T06:55:43;29.00;;;15.17;;
15996;SDS011;8103;51.340;12.326;2022-11-20T06:58:13;28.83;;;16.57;;
15996;SDS011;8103;51.340;12.326;2022-11-20T07:00:41;27.10;;;16.07;;
15996;SDS011;8103;51.340;12.326;2022-11-20T07:03:09;29.50;;;17.80;;
15996;SDS011;8103;51.340;12.326;2022-11-20T07:05:37;29.33;;;16.03;;
15996;SDS011;8103;51.340;12.326;2022-11-20T07:08:05;28.33;;;17.57;;
15996;SDS011;8103;51.340;12.326;2022-11-20T07:10:32;34.33;;;16.20;;
15996;SDS011;8103;51.340;12.326;2022-11-20T07:13:00;28.43;;;18.30;;
15996;SDS011;8103;51.340;12.326;2022-11-20T07:15:27;32.97;;;17.93;;
15996;SDS011;8103;51.340;12.326;2022-11-20T07:17:55;28.17;;;16.47;;
15996;SDS011;8103;51.340;12.326;2022-11-20T07:20:24;30.70;;;17.53;;
15996;SDS011;8103;51.340;12.326;2022-11-20T07:22:54;31.83;;;19.23;;
15996;SDS011;8103;51.340;12.326;2022-11-20T07:25:22;29.57;;;16.43;;
15996;SDS011;8103;51.340;12.326;2022-11-20T07:27:50;36.07;;;19.27;;
15996;SDS011;8103;51.340;12.326;2022-11-20T07:30:17;33.07;;;17.70;;
15996;SDS011;8103;51.340;12.326;2022-11-20T07:32:50;34.43;;;18.47;;
15996;SDS011;8103;51.340;12.326;2022-11-20T07:35:18;32.03;;;17.77;;
15996;SDS011;8103;51.340;12.326;2022-11-20T07:37:45;33.07;;;16.97;;
15996;SDS011;8103;51.340;12.326;2022-11-20T07:40:13;39.23;;;20.33;;
15996;SDS011;8103;51.340;12.326;2022-11-20T07:42:50;31.07;;;16.43;;
15996;SDS011;8103;51.340;12.326;2022-11-20T07:45:21;30.47;;;17.13;;
15996;SDS011;8103;51.340;12.326;2022-11-20T07:47:49;29.73;;;16.77;;
15996;SDS011;8103;51.340;12.326;2022-11-20T07:50:17;25.60;;;16.37;;
15996;SDS011;8103;51.340;12.326;2022-11-20T07:52:45;31.40;;;17.33;;
15996;SDS011;8103;51.340;12.326;2022-11-20T07:55:12;26.27;;;16.13;;
15996;SDS011;8103;51.340;12.326;2022-11-20T07:57:39;23.67;;;15.33;;
15996;SDS011;8103;51.340;12.326;2022-11-20T08:00:08;30.10;;;18.93;;
15996;SDS011;8103;51.340;12.326;2022-11-20T08:02:40;27.37;;;15.27;;
15996;SDS011;8103;51.340;12.326;2022-11-20T08:05:08;27.23;;;16.17;;
15996;SDS011;8103;51.340;12.326;2022-11-20T08:07:39;28.93;;;16.80;;
15996;SDS011;8103;51.340;12.326;2022-11-20T08:10:08;31.80;;;18.37;;
15996;SDS011;8103;51.340;12.326;2022-11-20T08:12:43;28.20;;;16.90;;
15996;SDS011;8103;51.340;12.326;2022-11-20T08:15:32;26.00;;;16.37;;
15996;SDS011;8103;51.340;12.326;2022-11-20T08:18:06;32.50;;;17.57;;
15996;SDS011;8103;51.340;12.326;2022-11-20T08:20:55;31.87;;;16.57;;
15996;SDS011;8103;51.340;12.326;2022-11-20T08:23:22;26.17;;;14.93;;
15996;SDS011;8103;51.340;12.326;2022-11-20T08:25:50;31.47;;;15.73;;
15996;SDS011;8103;51.340;12.326;2022-11-20T08:28:17;29.47;;;17.03;;
15996;SDS011;8103;51.340;12.326;2022-11-20T08:30:47;28.20;;;16.37;;
15996;SDS011;8103;51.340;12.326;2022-11-20T08:33:15;26.07;;;14.50;;
15996;SDS011;8103;51.340;12.326;2022-11-20T08:35:43;24.53;;;13.73;;
15996;SDS011;8103;51.340;12.326;2022-11-20T08:38:10;24.45;;;13.63;;
15996;SDS011;8103;51.340;12.326;2022-11-20T08:40:39;26.10;;;13.82;;
15996;SDS011;8103;51.340;12.326;2022-11-20T08:43:06;22.00;;;14.32;;
15996;SDS011;8103;51.340;12.326;2022-11-20T08:45:33;18.40;;;12.10;;
15996;SDS011;8103;51.340;12.326;2022-11-20T08:48:04;18.75;;;13.35;;
15996;SDS011;8103;51.340;12.326;2022-11-20T08:50:33;16.95;;;11.45;;
15996;SDS011;8103;51.340;12.326;2022-11-20T08:53:03;23.60;;;13.93;;
15996;SDS011;8103;51.340;12.326;2022-11-20T08:55:30;18.65;;;12.20;;
15996;SDS011;8103;51.340;12.326;2022-11-20T08:58:02;17.38;;;12.57;;
15996;SDS011;8103;51.340;12.326;2022-11-20T09:00:29;18.75;;;12.13;;
15996;SDS011;8103;51.340;12.326;2022-11-20T09:02:57;15.23;;;11.38;;
15996;SDS011;8103;51.340;12.326;2022-11-20T09:05:24;15.85;;;11.25;;
15996;SDS011;8103;51.340;12.326;2022-11-20T09:07:52;17.80;;;11.90;;
15996;SDS011;8103;51.340;12.326;2022-11-20T09:10:23;19.13;;;11.75;;
15996;SDS011;8103;51.340;12.326;2022-11-20T09:12:52;14.57;;;10.80;;
15996;SDS011;8103;51.340;12.326;2022-11-20T09:15:21;16.25;;;11.90;;
15996;SDS011;8103;51.340;12.326;2022-11-20T09:17:52;15.45;;;11.45;;
15996;SDS011;8103;51.340;12.326;2022-11-20T09:20:19;15.00;;;11.63;;
15996;SDS011;8103;51.340;12.326;2022-11-20T09:22:46;16.92;;;12.40;;
15996;SDS011;8103;51.340;12.326;2022-11-20T09:25:13;15.75;;;11.75;;
15996;SDS011;8103;51.340;12.326;2022-11-20T09:27:40;13.90;;;10.48;;
15996;SDS011;8103;51.340;12.326;2022-11-20T09:30:10;15.98;;;11.35;;
15996;SDS011;8103;51.340;12.326;2022-11-20T09:32:38;15.43;;;11.65;;
15996;SDS011;8103;51.340;12.326;2022-11-20T09:35:06;16.85;;;10.15;;
15996;SDS011;8103;51.340;12.326;2022-11-20T09:37:33;14.90;;;11.55;;
15996;SDS011;8103;51.340;12.326;2022-11-20T09:40:00;13.10;;;10.18;;
15996;SDS011;8103;51.340;12.326;2022-11-20T09:54:12;16.77;;;12.82;;
15996;SDS011;8103;51.340;12.326;2022-11-20T09:56:45;15.88;;;12.43;;
15996;SDS011;8103;51.340;12.326;2022-11-20T10:00:00;14.43;;;11.27;;
15996;SDS011;8103;51.340;12.326;2022-11-20T10:04:55;15.32;;;12.70;;
15996;SDS011;8103;51.340;12.326;2022-11-20T10:07:30;18.30;;;13.30;;
15996;SDS011;8103;51.340;12.326;2022-11-20T10:10:19;16.17;;;12.15;;
15996;SDS011;8103;51.340;12.326;2022-11-20T10:23:56;16.85;;;13.48;;
15996;SDS011;8103;51.340;12.326;2022-11-20T10:29:21;16.90;;;12.75;;
15996;SDS011;8103;51.340;12.326;2022-11-20T10:32:16;24.73;;;17.30;;
15996;SDS011;8103;51.340;12.326;2022-11-20T10:37:23;16.67;;;11.73;;
15996;SDS011;8103;51.340;12.326;2022-11-20T10:42:43;18.52;;;12.35;;
15996;SDS011;8103;51.340;12.326;2022-11-20T10:47:50;18.40;;;12.20;;
15996;SDS011;8103;51.340;12.326;2022-11-20T10:50:20;15.40;;;10.57;;
15996;SDS011;8103;51.340;12.326;2022-11-20T10:58:18;14.40;;;10.00;;
15996;SDS011;8103;51.340;12.326;2022-11-20T11:01:05;14.73;;;10.48;;
15996;SDS011;8103;51.340;12.326;2022-11-20T11:03:40;13.75;;;9.40;;
15996;SDS011;8103;51.340;12.326;2022-11-20T11:06:17;14.25;;;9.88;;
15996;SDS011;8103;51.340;12.326;2022-11-20T11:08:55;12.00;;;8.60;;
15996;SDS011;8103;51.340;12.326;2022-11-20T11:11:29;13.55;;;9.30;;
15996;SDS011;8103;51.340;12.326;2022-11-20T11:14:14;14.32;;;9.02;;
15996;SDS011;8103;51.340;12.326;2022-11-20T11:16:49;12.40;;;9.20;;
15996;SDS011;8103;51.340;12.326;2022-11-20T11:19:18;11.30;;;8.77;;
15996;SDS011;8103;51.340;12.326;2022-11-20T11:21:46;11.85;;;7.70;;
15996;SDS011;8103;51.340;12.326;2022-11-20T11:27:13;17.13;;;8.38;;
15996;SDS011;8103;51.340;12.326;2022-11-20T11:29:44;11.85;;;7.32;;
15996;SDS011;8103;51.340;12.326;2022-11-20T11:32:21;7.93;;;6.30;;
15996;SDS011;8103;51.340;12.326;2022-11-20T11:35:01;10.68;;;6.53;;
15996;SDS011;8103;51.340;12.326;2022-11-20T11:37:34;11.43;;;7.25;;
15996;SDS011;8103;51.340;12.326;2022-11-20T11:40:03;9.75;;;6.85;;
15996;SDS011;8103;51.340;12.326;2022-11-20T11:42:58;8.48;;;6.30;;
15996;SDS011;8103;51.340;12.326;2022-11-20T11:45:28;12.45;;;7.65;;
15996;SDS011;8103;51.340;12.326;2022-11-20T11:47:56;10.02;;;7.75;;
15996;SDS011;8103;51.340;12.326;2022-11-20T11:50:25;10.52;;;7.10;;
15996;SDS011;8103;51.340;12.326;2022-11-20T12:01:44;13.03;;;8.90;;
15996;SDS011;8103;51.340;12.326;2022-11-20T12:04:05;12.93;;;8.35;;
15996;SDS011;8103;51.340;12.326;2022-11-20T12:06:43;13.43;;;8.87;;
15996;SDS011;8103;51.340;12.326;2022-11-20T12:09:14;15.23;;;8.03;;
15996;SDS011;8103;51.340;12.326;2022-11-20T12:12:08;19.08;;;8.27;;
15996;SDS011;8103;51.340;12.326;2022-11-20T12:14:42;12.77;;;8.27;;
15996;SDS011;8103;51.340;12.326;2022-11-20T12:17:12;11.47;;;7.57;;
15996;SDS011;8103;51.340;12.326;2022-11-20T12:19:40;12.27;;;8.47;;
15996;SDS011;8103;51.340;12.326;2022-11-20T12:22:21;11.02;;;8.02;;
15996;SDS011;8103;51.340;12.326;2022-11-20T12:30:24;13.63;;;9.20;;
15996;SDS011;8103;51.340;12.326;2022-11-20T12:40:30;11.67;;;8.03;;
15996;SDS011;8103;51.340;12.326;2022-11-20T12:51:44;13.47;;;8.80;;
15996;SDS011;8103;51.340;12.326;2022-11-20T12:54:32;13.60;;;9.23;;
15996;SDS011;8103;51.340;12.326;2022-11-20T12:57:09;12.33;;;8.60;;
15996;SDS011;8103;51.340;12.326;2022-11-20T13:02:33;11.77;;;8.43;;
15996;SDS011;8103;51.340;12.326;2022-11-20T13:06:04;13.35;;;8.65;;
15996;SDS011;8103;51.340;12.326;2022-11-20T13:08:38;10.48;;;7.25;;
15996;SDS011;8103;51.340;12.326;2022-11-20T13:16:27;11.48;;;7.75;;
15996;SDS011;8103;51.340;12.326;2022-11-20T13:19:09;10.43;;;7.38;;
15996;SDS011;8103;51.340;12.326;2022-11-20T13:21:40;8.75;;;6.50;;
15996;SDS011;8103;51.340;12.326;2022-11-20T13:29:27;10.07;;;8.25;;
15996;SDS011;8103;51.340;12.326;2022-11-20T13:34:33;9.30;;;7.38;;
15996;SDS011;8103;51.340;12.326;2022-11-20T13:37:04;9.50;;;7.03;;
15996;SDS011;8103;51.340;12.326;2022-11-20T13:39:35;8.35;;;7.45;;
15996;SDS011;8103;51.340;12.326;2022-11-20T13:42:20;9.65;;;7.15;;
15996;SDS011;8103;51.340;12.326;2022-11-20T13:44:53;10.88;;;7.43;;
15996;SDS011;8103;51.340;12.326;2022-11-20T13:47:25;10.25;;;7.93;;
15996;SDS011;8103;51.340;12.326;2022-11-20T13:49:53;9.55;;;7.47;;
15996;SDS011;8103;51.340;12.326;2022-11-20T13:57:59;21.77;;;8.57;;
15996;SDS011;8103;51.340;12.326;2022-11-20T14:00:51;10.98;;;7.22;;
15996;SDS011;8103;51.340;12.326;2022-11-20T14:03:42;9.63;;;7.05;;
15996;SDS011;8103;51.340;12.326;2022-11-20T14:06:34;7.25;;;5.65;;
15996;SDS011;8103;51.340;12.326;2022-11-20T14:09:10;9.65;;;7.80;;
15996;SDS011;8103;51.340;12.326;2022-11-20T14:11:57;13.75;;;7.90;;
15996;SDS011;8103;51.340;12.326;2022-11-20T14:14:25;7.82;;;6.53;;
15996;SDS011;8103;51.340;12.326;2022-11-20T14:17:07;10.05;;;7.75;;
15996;SDS011;8103;51.340;12.326;2022-11-20T14:19:43;9.15;;;7.20;;
15996;SDS011;8103;51.340;12.326;2022-11-20T14:22:22;9.98;;;6.47;;
15996;SDS011;8103;51.340;12.326;2022-11-20T14:27:39;11.20;;;7.63;;
15996;SDS011;8103;51.340;12.326;2022-11-20T14:30:15;10.40;;;7.50;;
15996;SDS011;8103;51.340;12.326;2022-11-20T14:32:44;13.90;;;9.02;;
15996;SDS011;8103;51.340;12.326;2022-11-20T14:35:34;12.23;;;8.13;;
15996;SDS011;8103;51.340;12.326;2022-11-20T14:38:08;13.27;;;8.82;;
15996;SDS011;8103;51.340;12.326;2022-11-20T14:40:40;18.77;;;9.60;;
15996;SDS011;8103;51.340;12.326;2022-11-20T14:51:23;14.35;;;8.68;;
15996;SDS011;8103;51.340;12.326;2022-11-20T14:53:55;18.80;;;9.90;;
15996;SDS011;8103;51.340;12.326;2022-11-20T14:56:23;14.20;;;9.87;;
15996;SDS011;8103;51.340;12.326;2022-11-20T14:58:55;14.07;;;9.33;;
15996;SDS011;8103;51.340;12.326;2022-11-20T15:01:27;20.80;;;9.87;;
15996;SDS011;8103;51.340;12.326;2022-11-20T15:04:05;14.70;;;9.27;;
15996;SDS011;8103;51.340;12.326;2022-11-20T15:06:37;18.43;;;10.73;;
15996;SDS011;8103;51.340;12.326;2022-11-20T15:09:15;21.23;;;11.17;;
15996;SDS011;8103;51.340;12.326;2022-11-20T15:11:52;17.00;;;10.37;;
15996;SDS011;8103;51.340;12.326;2022-11-20T15:14:30;17.47;;;9.70;;
15996;SDS011;8103;51.340;12.326;2022-11-20T15:16:58;12.77;;;9.10;;
15996;SDS011;8103;51.340;12.326;2022-11-20T15:19:25;15.60;;;10.43;;
15996;SDS011;8103;51.340;12.326;2022-11-20T15:21:53;14.17;;;9.23;;
15996;SDS011;8103;51.340;12.326;2022-11-20T15:24:20;16.67;;;10.90;;
15996;SDS011;8103;51.340;12.326;2022-11-20T15:26:47;18.00;;;11.00;;
15996;SDS011;8103;51.340;12.326;2022-11-20T15:29:15;18.03;;;10.00;;
15996;SDS011;8103;51.340;12.326;2022-11-20T15:31:45;21.63;;;11.33;;
15996;SDS011;8103;51.340;12.326;2022-11-20T15:34:13;17.23;;;11.17;;
15996;SDS011;8103;51.340;12.326;2022-11-20T15:36:41;19.17;;;11.07;;
15996;SDS011;8103;51.340;12.326;2022-11-20T15:39:09;17.63;;;10.77;;
15996;SDS011;8103;51.340;12.326;2022-11-20T15:41:39;26.53;;;14.93;;
15996;SDS011;8103;51.340;12.326;2022-11-20T15:44:06;18.63;;;12.27;;
15996;SDS011;8103;51.340;12.326;2022-11-20T15:46:37;13.90;;;10.53;;
15996;SDS011;8103;51.340;12.326;2022-11-20T15:49:15;16.20;;;10.17;;
15996;SDS011;8103;51.340;12.326;2022-11-20T15:51:46;19.00;;;10.80;;
15996;SDS011;8103;51.340;12.326;2022-11-20T15:54:15;12.83;;;9.00;;
15996;SDS011;8103;51.340;12.326;2022-11-20T15:56:47;15.50;;;9.57;;
15996;SDS011;8103;51.340;12.326;2022-11-20T15:59:14;15.27;;;9.77;;
15996;SDS011;8103;51.340;12.326;2022-11-20T16:01:41;18.37;;;11.60;;
15996;SDS011;8103;51.340;12.326;2022-11-20T16:04:11;16.37;;;10.40;;
15996;SDS011;8103;51.340;12.326;2022-11-20T16:06:43;20.10;;;12.70;;
15996;SDS011;8103;51.340;12.326;2022-11-20T16:09:10;20.13;;;13.33;;
15996;SDS011;8103;51.340;12.326;2022-11-20T16:11:37;17.90;;;10.73;;
15996;SDS011;8103;51.340;12.326;2022-11-20T16:14:06;19.83;;;12.10;;
15996;SDS011;8103;51.340;12.326;2022-11-20T16:16:55;19.30;;;11.53;;
15996;SDS011;8103;51.340;12.326;2022-11-20T16:19:22;16.47;;;9.23;;
15996;SDS011;8103;51.340;12.326;2022-11-20T16:21:49;18.03;;;11.10;;
15996;SDS011;8103;51.340;12.326;2022-11-20T16:24:17;18.27;;;10.90;;
15996;SDS011;8103;51.340;12.326;2022-11-20T16:26:44;18.67;;;11.37;;
15996;SDS011;8103;51.340;12.326;2022-11-20T16:29:11;19.10;;;11.47;;
15996;SDS011;8103;51.340;12.326;2022-11-20T16:31:38;15.47;;;10.27;;
15996;SDS011;8103;51.340;12.326;2022-11-20T16:34:05;18.90;;;10.93;;
15996;SDS011;8103;51.340;12.326;2022-11-20T16:36:39;23.93;;;12.50;;